Time;durP1;ratioP1;P1;durP2;ratioP2;P2;SDS_P1;SDS_P2;PMS_P1;PMS_P2;Temp;Humidity;BMP_temperature;BMP_pressure;BME280_temperature;BME280_humidity;BME280_pressure;Samples;Min_cycle;Max_cycle;Signal;HPM_P1;HPM_P2
2022/04/30 00:01:31;;;;;;;14.60;12.40;;;15.10;97.10;;;15.03;100.00;101102.13;4971977;28;20046;-77
2022/04/30 00:03:59;;;;;;;18.05;11.73;;;15.10;96.90;;;14.98;100.00;101108.47;4987067;28;20439;-77
2022/04/30 00:06:26;;;;;;;17.05;10.30;;;15.90;97.30;;;14.88;100.00;101105.25;4987646;28;20043;-77
2022/04/30 00:08:53;;;;;;;13.85;10.93;;;15.00;96.90;;;14.83;100.00;101109.81;4986003;28;20046;-77
2022/04/30 00:11:20;;;;;;;10.23;8.82;;;15.00;97.10;;;14.79;100.00;101105.53;4987567;28;20113;-77
2022/04/30 00:13:50;;;;;;;13.82;11.02;;;14.90;97.30;;;14.81;100.00;101111.66;4971109;28;20133;-77
2022/04/30 00:16:17;;;;;;;16.50;10.43;;;14.90;97.60;;;14.82;100.00;101100.16;4971680;28;20577;-77
2022/04/30 00:18:45;;;;;;;16.95;11.52;;;14.80;97.70;;;14.71;100.00;101089.84;4986624;28;20112;-77
2022/04/30 00:21:12;;;;;;;15.98;12.70;;;14.80;98.20;;;14.66;100.00;101097.91;4988351;28;20050;-77
2022/04/30 00:23:42;;;;;;;13.85;11.88;;;14.80;98.50;;;14.68;100.00;101096.09;4986982;28;20622;-77
2022/04/30 00:26:12;;;;;;;18.55;13.00;;;14.70;98.70;;;14.61;100.00;101097.19;4986564;28;20553;-76
2022/04/30 00:28:39;;;;;;;17.83;13.88;;;15.70;99.30;;;14.55;100.00;101082.34;4987490;28;20050;-76
2022/04/30 00:31:07;;;;;;;23.25;14.82;;;14.60;99.40;;;14.41;100.00;101093.31;4986683;28;20053;-77
2022/04/30 00:33:36;;;;;;;19.30;15.73;;;14.60;99.90;;;14.43;100.00;101083.56;5001559;28;20121;-77
2022/04/30 00:36:22;;;;;;;20.98;16.67;;;14.60;99.90;;;14.37;100.00;101088.19;4988878;28;20120;-77
2022/04/30 00:38:52;;;;;;;21.67;16.80;;;14.50;99.90;;;14.35;100.00;101090.88;4988115;28;20129;-77
2022/04/30 00:41:21;;;;;;;21.10;16.80;;;15.40;99.90;;;14.32;100.00;101081.22;5004225;28;20046;-77
2022/04/30 00:43:54;;;;;;;24.95;17.17;;;14.40;99.90;;;14.29;100.00;101085.75;4972116;28;20629;-77
2022/04/30 00:46:23;;;;;;;26.55;19.38;;;14.40;99.90;;;14.27;100.00;101087.56;4988190;28;20042;-77
2022/04/30 00:48:53;;;;;;;24.73;19.20;;;14.40;99.90;;;14.15;100.00;101081.72;5003721;28;20043;-76
2022/04/30 00:51:23;;;;;;;27.90;18.63;;;14.30;99.90;;;14.15;100.00;101083.47;5004109;28;20074;-77
2022/04/30 00:53:53;;;;;;;23.13;17.67;;;14.60;99.90;;;14.11;100.00;101087.13;5003756;28;20038;-77
2022/04/30 00:56:47;;;;;;;27.70;18.65;;;14.80;99.90;;;14.07;100.00;101088.97;5003717;28;20491;-77
2022/04/30 00:59:17;;;;;;;25.58;19.35;;;14.20;99.90;;;14.04;100.00;101081.97;5003621;28;20125;-77
2022/04/30 01:01:48;;;;;;;27.50;19.52;;;14.10;99.90;;;14.01;100.00;101086.50;4990114;28;20050;-76
2022/04/30 01:04:34;;;;;;;28.83;19.65;;;14.10;99.90;;;13.94;100.00;101082.28;4989886;28;20048;-77
2022/04/30 01:07:20;;;;;;;31.23;20.38;;;14.20;99.90;;;13.86;100.00;101087.75;5001849;28;20136;-77
2022/04/30 01:09:50;;;;;;;29.85;20.35;;;14.10;99.90;;;13.74;100.00;101081.91;5002866;28;20050;-77
2022/04/30 01:12:17;;;;;;;29.27;21.10;;;14.00;99.90;;;13.67;100.00;101087.41;5007609;28;20046;-77
2022/04/30 01:14:46;;;;;;;27.20;19.80;;;13.90;99.90;;;13.68;100.00;101078.56;4991857;28;20054;-76
2022/04/30 01:17:13;;;;;;;23.85;19.05;;;13.80;99.90;;;13.58;100.00;101076.13;4987893;28;20062;-77
2022/04/30 01:19:43;;;;;;;24.98;20.13;;;13.90;99.90;;;13.58;100.00;101078.78;4970699;28;20054;-76
2022/04/30 01:22:26;;;;;;;29.98;20.92;;;14.20;99.90;;;13.54;100.00;101066.56;4972933;28;20077;-76
2022/04/30 01:24:59;;;;;;;30.73;20.27;;;13.70;99.90;;;13.53;100.00;101067.47;4985513;28;20126;-77
2022/04/30 01:27:30;;;;;;;29.23;19.60;;;13.80;99.90;;;13.58;100.00;101065.56;4987596;28;20611;-77
2022/04/30 01:30:01;;;;;;;29.92;21.30;;;13.60;99.90;;;13.46;100.00;101066.75;4986522;28;20055;-77
2022/04/30 01:38:11;;;;;;;24.92;19.67;;;13.80;99.90;;;13.39;100.00;101064.25;4984614;28;20058;-77
2022/04/30 01:40:39;;;;;;;29.55;20.92;;;14.30;99.90;;;13.44;100.00;101067.69;4986512;28;20055;-76
2022/04/30 01:43:07;;;;;;;27.63;20.95;;;13.60;99.90;;;13.40;100.00;101063.34;4970604;28;20049;-77
2022/04/30 01:45:35;;;;;;;25.20;19.17;;;13.90;99.90;;;13.36;100.00;101066.97;4971672;28;20068;-77
2022/04/30 01:48:05;;;;;;;28.05;21.63;;;13.50;99.90;;;13.40;100.00;101066.00;4971080;28;20074;-77
2022/04/30 01:50:34;;;;;;;27.50;19.87;;;13.50;99.90;;;13.31;100.00;101067.09;4987098;28;20508;-77
2022/04/30 01:53:02;;;;;;;26.65;22.02;;;13.50;99.90;;;13.34;100.00;101057.28;4977362;28;20125;-77
2022/04/30 01:55:29;;;;;;;25.88;19.77;;;13.70;99.90;;;13.37;100.00;101056.34;4987584;28;20050;-77
2022/04/30 01:58:01;;;;;;;31.17;22.02;;;13.40;99.90;;;13.30;100.00;101068.84;4987126;28;20050;-77
2022/04/30 02:00:29;;;;;;;27.17;21.10;;;13.50;99.90;;;13.31;100.00;101062.66;4970510;28;20591;-77
2022/04/30 02:03:08;;;;;;;30.55;21.38;;;14.50;99.90;;;13.29;100.00;101061.81;5005978;28;20049;-76
2022/04/30 02:05:39;;;;;;;26.92;19.88;;;13.80;99.90;;;13.30;100.00;101062.72;4989699;28;20042;-77
2022/04/30 02:08:19;;;;;;;27.02;21.80;;;13.40;99.90;;;13.36;100.00;101056.41;4989754;28;20046;-77
2022/04/30 02:10:48;;;;;;;23.65;19.60;;;13.50;99.90;;;13.31;100.00;101067.94;4989571;28;20100;-77
2022/04/30 02:13:21;;;;;;;31.90;22.15;;;13.40;99.90;;;13.29;100.00;101064.47;4973882;28;20698;-76
2022/04/30 02:15:50;;;;;;;32.22;21.25;;;13.40;99.90;;;13.24;100.00;101057.56;4975013;28;20423;-76
2022/04/30 02:18:19;;;;;;;28.00;21.15;;;13.40;99.90;;;13.16;100.00;101057.72;4974851;28;20082;-76
2022/04/30 02:20:49;;;;;;;32.17;21.50;;;13.40;99.90;;;13.20;100.00;101064.72;4973789;28;20043;-76
2022/04/30 02:23:16;;;;;;;;;;;13.30;99.90;;;13.23;100.00;101062.00;4959757;28;20415;-76
2022/04/30 02:25:45;;;;;;;31.23;21.08;;;13.30;99.90;;;13.28;100.00;101064.53;4989660;28;19922;-76
2022/04/30 02:28:12;;;;;;;27.80;21.88;;;13.30;99.90;;;13.19;100.00;101065.63;4974305;28;20049;-76
2022/04/30 02:30:39;;;;;;;27.75;21.65;;;13.90;99.90;;;13.24;100.00;101078.69;4989866;28;20038;-76
2022/04/30 02:33:12;;;;;;;30.80;22.65;;;13.80;99.90;;;13.17;100.00;101080.59;4974147;28;20046;-76
2022/04/30 02:35:44;;;;;;;34.15;21.75;;;13.30;99.90;;;13.12;100.00;101087.78;4973819;28;20046;-76
2022/04/30 02:38:12;;;;;;;29.33;21.58;;;13.30;99.90;;;13.15;100.00;101093.00;4989895;28;20058;-76
2022/04/30 02:40:41;;;;;;;30.67;22.70;;;13.30;99.90;;;13.06;100.00;101086.16;4973204;28;20057;-76
2022/04/30 02:43:11;;;;;;;28.88;22.17;;;13.20;99.90;;;13.10;100.00;101093.09;5006409;28;20070;-76
2022/04/30 02:45:42;;;;;;;27.63;21.48;;;13.20;99.90;;;13.09;100.00;101096.63;4990655;28;20046;-76
2022/04/30 02:48:09;;;;;;;26.20;20.30;;;13.20;99.90;;;13.10;100.00;101084.31;4990393;28;20139;-77
2022/04/30 02:50:37;;;;;;;33.88;22.38;;;13.20;99.90;;;13.12;100.00;101080.75;4973726;28;20704;-76
2022/04/30 02:53:08;;;;;;;29.33;20.73;;;13.20;99.90;;;13.11;100.00;101089.56;4989578;28;20414;-76
2022/04/30 02:55:36;;;;;;;26.95;20.58;;;13.10;99.90;;;13.09;100.00;101077.28;4973345;28;20117;-77
2022/04/30 03:00:51;;;;;;;26.95;20.20;;;13.10;99.90;;;13.00;100.00;101046.69;4989075;28;20818;-77
2022/04/30 03:03:23;;;;;;;29.85;20.13;;;13.10;99.90;;;13.01;100.00;101046.63;4977569;28;20121;-77
2022/04/30 03:05:51;;;;;;;26.73;19.17;;;13.10;99.90;;;12.93;100.00;101045.94;4988095;28;20043;-77
2022/04/30 03:08:21;;;;;;;30.90;21.10;;;13.10;99.90;;;12.82;100.00;101048.84;4969184;28;20406;-77
2022/04/30 03:10:55;;;;;;;25.08;19.08;;;13.00;99.90;;;12.87;100.00;101046.06;4993974;28;20061;-77
2022/04/30 03:13:24;;;;;;;24.23;17.85;;;13.30;99.90;;;12.76;100.00;101044.56;4988413;28;20495;-77
2022/04/30 03:15:54;;;;;;;23.40;19.33;;;12.90;99.90;;;12.79;100.00;101038.31;4972722;28;20048;-77
2022/04/30 03:23:47;;;;;;;24.58;18.50;;;12.80;99.90;;;12.66;100.00;101036.88;4984833;28;20038;-77
2022/04/30 03:26:15;;;;;;;26.52;19.83;;;12.80;99.90;;;12.59;100.00;101030.88;4988157;28;20340;-77
2022/04/30 03:28:43;;;;;;;28.98;22.80;;;12.80;99.90;;;12.55;100.00;101032.69;5004021;28;20081;-77
2022/04/30 03:31:11;;;;;;;32.17;24.52;;;12.80;99.90;;;12.57;100.00;101024.75;4988335;28;20077;-77
2022/04/30 03:33:39;;;;;;;24.25;18.30;;;12.70;99.90;;;12.50;100.00;101029.31;4987975;28;20439;-77
2022/04/30 03:36:09;;;;;;;21.77;17.90;;;12.70;99.90;;;12.53;100.00;101031.88;5004680;28;20065;-77
2022/04/30 03:38:37;;;;;;;25.27;20.88;;;12.70;99.90;;;12.53;100.00;101039.78;4987501;28;20153;-77
2022/04/30 03:41:05;;;;;;;24.38;18.55;;;12.60;99.90;;;12.47;100.00;101042.53;5003588;28;20048;-77
2022/04/30 03:43:32;;;;;;;21.40;18.10;;;13.70;99.90;;;12.47;100.00;101045.19;4987782;28;20123;-77
2022/04/30 03:45:59;;;;;;;25.10;17.45;;;12.60;99.90;;;12.44;100.00;101050.53;4987622;28;20047;-77
2022/04/30 03:48:26;;;;;;;22.38;18.17;;;13.70;99.90;;;12.48;100.00;101054.81;4987962;28;20476;-77
2022/04/30 03:50:53;;;;;;;21.30;17.15;;;12.60;99.90;;;12.52;100.00;101055.63;4987960;28;20439;-77
2022/04/30 03:53:20;;;;;;;20.77;16.60;;;12.60;99.90;;;12.45;100.00;101058.41;4972174;28;20050;-77
2022/04/30 03:55:47;;;;;;;21.05;16.63;;;13.10;99.90;;;12.45;100.00;101070.72;4972417;28;20054;-77
2022/04/30 03:58:14;;;;;;;20.40;16.95;;;13.20;99.90;;;12.50;100.00;101068.00;4988754;28;20054;-77
2022/04/30 04:00:41;;;;;;;19.00;16.23;;;12.60;99.90;;;12.45;100.00;101070.72;4970418;28;20932;-76
2022/04/30 04:03:08;;;;;;;24.20;17.13;;;13.10;99.90;;;12.50;100.00;101079.44;5004546;28;20117;-77
2022/04/30 04:05:35;;;;;;;27.58;18.02;;;12.50;99.90;;;12.49;100.00;101072.44;5003922;28;20034;-78
2022/04/30 04:08:10;;;;;;;22.20;16.48;;;12.50;99.90;;;12.53;100.00;101082.00;4987823;28;20065;-77
2022/04/30 04:10:38;;;;;;;20.13;17.23;;;12.50;99.90;;;12.54;100.00;101082.88;4987421;28;20411;-76
2022/04/30 04:18:37;;;;;;;23.52;16.95;;;12.60;99.90;;;12.51;100.00;101086.47;4987804;28;20645;-77
2022/04/30 04:21:04;;;;;;;21.02;16.80;;;12.50;99.90;;;12.43;100.00;101078.69;4986741;28;20057;-77
2022/04/30 04:25:58;;;;;;;21.08;15.75;;;13.40;99.90;;;12.51;100.00;101080.28;4987515;28;20060;-77
2022/04/30 04:26:21;;;;;;;21.07;16.63;;;13.50;99.90;;;12.44;100.00;101077.78;4990614;28;20641;-78
2022/04/30 04:28:48;;;;;;;19.98;16.00;;;12.90;99.90;;;12.44;100.00;101088.34;4973660;28;20669;-77
2022/04/30 04:31:17;;;;;;;19.95;14.45;;;12.50;99.90;;;12.41;100.00;101079.63;4974269;28;20046;-77
2022/04/30 04:33:44;;;;;;;17.67;14.32;;;12.50;99.90;;;12.41;100.00;101072.59;4989193;28;20065;-78
2022/04/30 04:36:11;;;;;;;19.20;15.60;;;12.50;99.90;;;12.37;100.00;101075.31;4989491;28;20046;-77
2022/04/30 04:38:38;;;;;;;21.17;15.02;;;12.50;99.90;;;12.37;100.00;101065.59;4989555;28;20689;-77
2022/04/30 04:41:05;;;;;;;16.40;13.77;;;12.50;99.90;;;12.40;100.00;101072.59;4973106;28;20046;-77
2022/04/30 04:43:32;;;;;;;21.85;17.05;;;12.50;99.90;;;12.37;100.00;101060.34;4973805;28;20046;-78
2022/04/30 04:46:03;;;;;;;17.23;14.18;;;12.40;99.90;;;12.36;100.00;101063.03;4978130;28;20046;-77
2022/04/30 04:48:33;;;;;;;18.75;14.88;;;12.50;99.90;;;12.32;100.00;101067.47;5009881;28;20042;-78
2022/04/30 04:51:01;;;;;;;19.95;15.52;;;12.40;99.90;;;12.31;100.00;101069.25;4994384;28;20046;-78
2022/04/30 04:53:31;;;;;;;22.25;15.18;;;12.40;99.90;;;12.29;100.00;101075.47;4996784;28;20042;-78
2022/04/30 04:56:01;;;;;;;20.80;15.57;;;12.40;99.90;;;12.35;100.00;101085.88;4993813;28;20506;-77
2022/04/30 04:58:28;;;;;;;18.23;15.63;;;12.40;99.90;;;12.32;100.00;101088.59;5009021;28;20050;-77
2022/04/30 05:00:55;;;;;;;18.52;14.25;;;12.40;99.90;;;12.34;100.00;101105.25;4993669;28;20058;-77
2022/04/30 05:03:22;;;;;;;21.27;15.48;;;12.40;99.90;;;12.30;100.00;101091.25;5010085;28;20056;-77
2022/04/30 05:05:51;;;;;;;19.13;15.65;;;12.40;99.90;;;12.29;100.00;101100.06;4994818;28;20046;-77
2022/04/30 05:08:18;;;;;;;19.65;14.63;;;13.40;99.90;;;12.33;100.00;101101.78;5006940;28;20034;-77
2022/04/30 05:10:45;;;;;;;19.15;15.85;;;12.40;99.90;;;12.25;100.00;101102.78;5007135;28;20046;-77
2022/04/30 05:13:12;;;;;;;17.60;14.93;;;12.40;99.90;;;12.31;100.00;101098.25;5006809;28;20042;-76
2022/04/30 05:15:39;;;;;;;20.27;15.85;;;12.70;99.90;;;12.37;100.00;101102.56;4991211;28;20495;-77
2022/04/30 05:18:07;;;;;;;18.35;14.50;;;12.40;99.90;;;12.27;100.00;101114.22;4992353;28;20487;-77
2022/04/30 05:20:34;;;;;;;18.55;15.55;;;12.40;99.90;;;12.28;100.00;101114.16;5006326;28;20042;-77
2022/04/30 05:23:09;;;;;;;19.23;15.63;;;12.50;99.90;;;12.27;100.00;101117.69;4990958;28;20073;-77
2022/04/30 05:25:40;;;;;;;17.40;14.90;;;12.40;99.90;;;12.32;100.00;101114.97;5006875;28;20077;-77
2022/04/30 05:28:09;;;;;;;18.10;16.17;;;12.40;99.90;;;12.29;100.00;101115.91;5007035;28;20050;-77
2022/04/30 05:30:38;;;;;;;18.92;15.65;;;12.30;99.90;;;12.33;100.00;101116.72;5009130;28;20570;-78
2022/04/30 05:33:05;;;;;;;19.17;15.63;;;12.30;99.90;;;12.29;100.00;101120.31;5011887;28;20046;-77
2022/04/30 05:35:32;;;;;;;19.98;15.48;;;12.40;99.90;;;12.32;100.00;101123.75;4995046;28;20050;-77
2022/04/30 05:37:59;;;;;;;21.65;16.33;;;12.30;99.90;;;12.31;100.00;101118.53;4995117;28;20049;-77
2022/04/30 05:40:26;;;;;;;18.63;15.35;;;12.40;99.90;;;12.32;100.00;101125.53;4991262;28;20052;-77
2022/04/30 05:42:53;;;;;;;24.35;16.00;;;12.40;99.90;;;12.29;100.00;101131.72;4992280;28;20046;-77
2022/04/30 05:45:20;;;;;;;21.08;15.63;;;12.40;99.90;;;12.29;100.00;101131.72;5004527;28;20045;-78
2022/04/30 05:47:47;;;;;;;18.75;15.98;;;12.40;99.90;;;12.30;100.00;101132.63;4991115;28;20046;-77
2022/04/30 05:50:14;;;;;;;17.38;14.68;;;12.40;99.90;;;12.34;100.00;101134.28;4988191;28;20062;-76
2022/04/30 05:52:41;;;;;;;19.35;15.20;;;12.40;99.90;;;12.34;100.00;101135.19;4988004;28;20042;-76
2022/04/30 05:55:09;;;;;;;17.60;14.10;;;12.40;99.90;;;12.42;100.00;101142.06;4986200;28;20039;-76
2022/04/30 05:57:36;;;;;;;23.73;16.33;;;12.40;99.90;;;12.45;100.00;101132.31;4986849;28;20042;-77
2022/04/30 06:00:05;;;;;;;22.00;15.15;;;13.20;99.90;;;12.41;100.00;101137.69;4987825;28;20058;-77
2022/04/30 06:02:32;;;;;;;20.65;15.60;;;12.50;99.90;;;12.39;100.00;101139.47;4987296;28;20058;-76
2022/04/30 06:04:59;;;;;;;21.88;15.65;;;12.50;99.90;;;12.40;100.00;101144.72;4987552;28;20102;-77
2022/04/30 06:07:26;;;;;;;18.17;15.85;;;12.50;99.90;;;12.46;100.00;101143.72;4972570;28;20515;-76
2022/04/30 06:09:53;;;;;;;17.27;15.38;;;12.50;99.90;;;12.41;100.00;101148.25;4990676;28;20492;-76
2022/04/30 06:12:21;;;;;;;21.95;16.67;;;12.50;99.90;;;12.37;100.00;101144.78;4993026;28;20058;-76
2022/04/30 06:14:48;;;;;;;18.90;16.52;;;13.60;99.90;;;12.39;100.00;101142.13;4977778;28;20511;-76
2022/04/30 06:17:15;;;;;;;18.38;16.48;;;12.50;99.90;;;12.45;100.00;101149.91;4993494;28;20042;-77
2022/04/30 06:19:42;;;;;;;20.40;18.05;;;12.50;99.90;;;12.32;100.00;101159.84;5006738;28;20026;-75
2022/04/30 06:22:09;;;;;;;21.63;17.13;;;12.50;99.90;;;12.36;100.00;101152.75;4985284;28;20046;-77
2022/04/30 06:24:36;;;;;;;24.67;17.52;;;12.50;99.90;;;12.41;100.00;101159.69;4991225;28;20062;-77
2022/04/30 06:27:04;;;;;;;20.13;17.70;;;13.60;99.90;;;12.40;100.00;101165.81;4992249;28;20042;-77
2022/04/30 06:29:31;;;;;;;24.52;17.27;;;11.90;99.90;;;12.38;100.00;101159.72;5006999;28;20046;-77
2022/04/30 06:31:58;;;;;;;18.75;16.35;;;12.50;99.90;;;12.44;100.00;101158.72;5006811;28;20583;-77
2022/04/30 06:34:25;;;;;;;21.33;17.20;;;12.50;99.90;;;12.50;100.00;101165.66;5006979;28;20108;-77
2022/04/30 06:36:52;;;;;;;21.63;18.23;;;13.20;99.90;;;12.47;100.00;101164.81;4992306;28;20807;-76
2022/04/30 06:39:19;;;;;;;24.33;18.10;;;12.60;99.90;;;12.51;100.00;101172.69;5007080;28;20751;-77
2022/04/30 06:41:46;;;;;;;21.13;18.65;;;12.80;99.90;;;12.47;100.00;101167.47;5006867;28;20125;-77
2022/04/30 06:44:13;;;;;;;26.02;20.05;;;13.90;99.90;;;12.41;100.00;101177.28;4989546;28;20549;-77
2022/04/30 06:46:40;;;;;;;21.58;19.20;;;12.60;99.90;;;12.44;100.00;101178.09;5006547;28;20439;-77
2022/04/30 06:49:08;;;;;;;26.58;19.58;;;12.60;99.90;;;12.52;100.00;101175.31;4990001;28;20101;-77
2022/04/30 06:51:35;;;;;;;21.48;19.25;;;12.60;99.90;;;12.51;100.00;101175.31;4990729;28;20403;-78
2022/04/30 06:57:07;;;;;;;21.20;18.75;;;12.60;99.90;;;12.50;100.00;101176.22;4994545;28;20080;-77
2022/04/30 06:59:39;;;;;;;25.70;19.77;;;12.60;99.90;;;12.44;100.00;101183.38;4975176;28;20133;-77
2022/04/30 07:02:32;;;;;;;22.45;18.77;;;13.60;99.90;;;12.54;100.00;101180.53;4989142;28;20499;-77
2022/04/30 07:05:00;;;;;;;20.67;17.90;;;12.60;99.90;;;12.46;100.00;101184.22;4988474;28;20117;-77
2022/04/30 07:07:27;;;;;;;24.13;19.02;;;12.60;99.90;;;12.45;100.00;101184.22;4990307;28;20046;-77
2022/04/30 07:09:54;;;;;;;24.63;19.80;;;12.60;99.90;;;12.45;100.00;101187.75;4972529;28;20571;-77
2022/04/30 07:12:21;;;;;;;21.67;19.38;;;12.60;99.90;;;12.49;100.00;101188.56;4972701;28;20439;-76
2022/04/30 07:14:49;;;;;;;22.52;20.13;;;12.60;99.90;;;12.40;100.00;101188.72;4989728;28;20042;-78
2022/04/30 07:17:16;;;;;;;21.42;19.17;;;12.60;99.90;;;12.32;100.00;101195.00;4974868;28;20145;-79
2022/04/30 07:19:43;;;;;;;23.58;19.77;;;14.30;99.90;;;12.33;100.00;101188.84;4973594;28;20062;-79
2022/04/30 07:22:10;;;;;;;22.63;20.00;;;12.60;99.90;;;12.36;100.00;101189.69;4989599;28;20065;-76
2022/04/30 07:24:37;;;;;;;22.38;20.00;;;13.80;99.90;;;12.47;100.00;101192.97;4992052;28;20435;-76
2022/04/30 07:27:05;;;;;;;22.58;20.23;;;12.50;99.90;;;12.38;100.00;101195.81;4990590;28;20061;-77
2022/04/30 07:29:33;;;;;;;23.83;21.20;;;12.50;99.90;;;12.41;100.00;101201.03;4991859;28;20054;-76
2022/04/30 07:32:00;;;;;;;21.75;19.55;;;13.30;99.90;;;12.44;100.00;101201.84;4976083;28;20092;-77
2022/04/30 07:34:28;;;;;;;21.75;19.10;;;12.50;99.90;;;12.44;100.00;101207.13;4993405;28;20514;-77
2022/04/30 07:36:56;;;;;;;22.50;19.90;;;12.60;99.90;;;12.47;100.00;101203.53;5009758;28;20057;-76
2022/04/30 07:39:23;;;;;;;23.77;20.35;;;12.60;99.90;;;12.44;100.00;101214.16;4976689;28;20050;-77
2022/04/30 07:41:55;;;;;;;22.20;18.55;;;12.60;99.90;;;12.49;100.00;101209.69;4975624;28;20667;-77
2022/04/30 07:44:22;;;;;;;22.90;19.67;;;12.60;99.90;;;12.49;100.00;101207.03;4991754;28;20046;-76
2022/04/30 07:46:49;;;;;;;25.52;19.63;;;12.60;99.90;;;12.50;100.00;101218.44;4991998;28;20034;-77
2022/04/30 07:49:17;;;;;;;22.42;19.50;;;12.60;99.90;;;12.55;100.00;101216.59;4969619;28;20101;-77
2022/04/30 07:51:53;;;;;;;21.45;19.23;;;12.60;99.90;;;12.59;100.00;101213.00;4980965;28;20053;-76
2022/04/30 07:54:20;;;;;;;21.42;19.13;;;12.60;99.90;;;12.54;100.00;101220.13;4983233;28;20535;-74
2022/04/30 07:56:55;;;;;;;19.65;17.52;;;12.70;99.90;;;12.42;100.00;101219.47;4987619;28;20129;-73
2022/04/30 07:59:23;;;;;;;20.02;17.98;;;12.60;99.90;;;12.46;100.00;101221.16;4971935;28;20048;-74
2022/04/30 08:01:51;;;;;;;21.27;18.55;;;12.60;99.90;;;12.42;100.00;101221.22;4986738;28;20058;-74
2022/04/30 08:04:18;;;;;;;21.25;19.02;;;12.60;99.90;;;12.43;100.00;101221.22;4983760;28;20089;-74
2022/04/30 08:06:45;;;;;;;21.17;18.92;;;12.50;99.90;;;12.43;100.00;101215.94;4987554;28;20047;-76
2022/04/30 08:09:13;;;;;;;20.98;17.83;;;12.50;99.90;;;12.39;100.00;101227.44;4986979;28;20053;-77
2022/04/30 08:11:41;;;;;;;21.70;19.17;;;12.50;99.90;;;12.43;100.00;101223.84;4988101;28;20034;-77
2022/04/30 08:14:08;;;;;;;22.98;18.75;;;12.50;99.90;;;12.37;100.00;101223.94;4988490;28;20080;-77
2022/04/30 08:16:36;;;;;;;20.98;18.38;;;12.50;99.90;;;12.44;100.00;101227.34;4987121;28;20054;-76
2022/04/30 08:19:03;;;;;;;23.65;19.48;;;12.50;99.90;;;12.32;100.00;101225.81;4969477;28;20042;-77
2022/04/30 08:21:30;;;;;;;20.60;17.65;;;12.40;99.90;;;12.25;100.00;101230.31;4971365;28;20058;-76
2022/04/30 08:23:57;;;;;;;21.05;18.80;;;12.50;99.90;;;12.19;100.00;101238.34;4987967;28;20105;-76
2022/04/30 08:26:24;;;;;;;20.58;18.45;;;12.50;99.90;;;12.20;100.00;101233.03;4971372;28;20042;-76
2022/04/30 08:28:51;;;;;;;23.02;20.40;;;12.40;99.90;;;12.21;100.00;101226.00;4971185;28;20058;-77
2022/04/30 08:31:18;;;;;;;19.88;17.88;;;12.40;99.90;;;12.22;100.00;101227.75;4971318;28;20030;-75
2022/04/30 08:33:45;;;;;;;21.20;18.55;;;13.30;99.90;;;12.28;100.00;101229.41;4971093;28;20104;-77
2022/04/30 08:36:14;;;;;;;21.58;19.40;;;13.30;99.90;;;12.26;100.00;101239.13;4987850;28;20042;-76
2022/04/30 08:38:41;;;;;;;25.15;18.83;;;12.40;99.90;;;12.24;100.00;101231.22;4988178;28;20039;-78
2022/04/30 08:41:14;;;;;;;21.23;19.08;;;12.40;99.90;;;12.33;100.00;101238.09;4987865;28;20057;-75
2022/04/30 08:43:41;;;;;;;25.70;19.27;;;12.40;99.90;;;12.37;100.00;101236.28;4971663;28;20054;-76
2022/04/30 08:46:08;;;;;;;24.23;20.02;;;13.50;99.90;;;12.36;100.00;101237.19;4988337;28;20045;-75
2022/04/30 08:48:38;;;;;;;22.08;19.65;;;12.40;99.90;;;12.36;100.00;101232.75;4987144;28;20105;-77
2022/04/30 08:51:05;;;;;;;20.05;17.92;;;12.40;99.90;;;12.45;100.00;101240.53;4986659;28;20070;-76
2022/04/30 08:53:32;;;;;;;21.95;19.73;;;12.60;99.90;;;12.48;100.00;101237.84;4987191;28;20046;-76
2022/04/30 08:55:59;;;;;;;22.67;20.30;;;12.50;99.90;;;12.38;100.00;101232.75;5003252;28;20035;-77
2022/04/30 08:58:26;;;;;;;21.73;19.42;;;12.50;99.90;;;12.45;100.00;101237.00;5003226;28;20567;-75
2022/04/30 09:00:53;;;;;;;22.58;19.40;;;12.50;99.90;;;12.49;100.00;101236.06;5002974;28;20133;-77
2022/04/30 09:03:21;;;;;;;21.63;19.30;;;12.50;99.90;;;12.52;100.00;101240.41;4987264;28;20547;-76
2022/04/30 09:05:49;;;;;;;23.17;19.13;;;12.60;99.90;;;12.56;100.00;101234.16;4971208;28;20108;-77
2022/04/30 09:08:16;;;;;;;19.67;17.63;;;12.60;99.90;;;12.44;100.00;101244.06;4971396;28;20050;-76
2022/04/30 09:10:43;;;;;;;21.52;19.30;;;13.80;99.90;;;12.43;100.00;101241.44;5004540;28;20048;-77
2022/04/30 09:13:15;;;;;;;20.38;17.70;;;13.00;99.90;;;12.47;100.00;101235.19;5002295;28;20043;-76
2022/04/30 09:15:46;;;;;;;19.70;17.75;;;12.60;99.90;;;12.52;100.00;101233.38;4989695;28;20057;-75
2022/04/30 09:18:17;;;;;;;20.95;17.77;;;12.60;99.90;;;12.45;100.00;101237.00;4987668;28;20049;-76
2022/04/30 09:20:48;;;;;;;;;;;12.60;99.90;;;12.52;100.00;101243.94;5000405;28;20050;-76
2022/04/30 09:23:31;;;;;;;18.95;16.00;;;12.60;99.90;;;12.52;100.00;101232.50;4987669;28;19922;-76
2022/04/30 09:26:03;;;;;;;20.55;18.27;;;12.60;99.90;;;12.55;100.00;101237.72;4971215;28;20205;-75
2022/04/30 09:28:33;;;;;;;22.10;18.10;;;12.60;99.90;;;12.41;100.00;101233.56;4986473;28;20064;-76
2022/04/30 09:31:18;;;;;;;19.48;17.42;;;12.60;99.90;;;12.59;100.00;101236.78;4971099;28;20054;-76
2022/04/30 09:33:51;;;;;;;21.00;18.80;;;12.60;99.90;;;12.58;100.00;101235.88;4991555;28;20038;-74
2022/04/30 09:39:15;;;;;;;21.83;17.40;;;12.70;99.90;;;12.58;100.00;101238.53;4990727;28;20050;-77
2022/04/30 09:41:42;;;;;;;22.02;18.40;;;12.70;99.90;;;12.62;100.00;101229.66;5008972;28;20692;-77
2022/04/30 09:44:14;;;;;;;21.00;18.73;;;12.70;99.90;;;12.59;100.00;101228.84;4990401;28;20046;-77
2022/04/30 09:46:41;;;;;;;22.52;18.80;;;12.70;99.90;;;12.59;100.00;101228.84;5005394;28;20046;-77
2022/04/30 09:54:43;;;;;;;20.75;18.55;;;12.70;99.90;;;12.63;100.00;101227.88;4988710;28;20042;-77
2022/04/30 09:57:17;;;;;;;20.05;17.98;;;13.20;99.90;;;12.62;100.00;101231.44;4974607;28;20054;-76
2022/04/30 09:59:54;;;;;;;22.13;18.08;;;13.80;99.90;;;12.56;100.00;101224.50;4989771;28;20056;-77
2022/04/30 10:02:24;;;;;;;20.02;17.95;;;12.80;99.90;;;12.64;100.00;101234.91;4990530;28;20046;-76
2022/04/30 10:04:54;;;;;;;19.90;17.58;;;13.40;99.90;;;12.63;100.00;101228.75;4990776;28;20057;-76
2022/04/30 10:07:25;;;;;;;18.67;16.73;;;13.20;99.90;;;12.63;100.00;101233.16;4989827;28;20038;-76
2022/04/30 10:10:25;;;;;;;22.08;18.40;;;12.70;99.90;;;12.54;100.00;101228.94;4989552;28;20085;-76
2022/04/30 10:13:07;;;;;;;21.17;18.77;;;12.70;99.90;;;12.61;100.00;101230.53;4987876;28;20038;-76
2022/04/30 10:15:49;;;;;;;20.52;18.27;;;12.80;99.90;;;12.73;100.00;101228.59;4988140;28;20805;-77
2022/04/30 10:18:18;;;;;;;20.77;18.67;;;12.70;99.90;;;12.74;100.00;101222.41;4990495;28;20050;-76
2022/04/30 10:21:00;;;;;;;21.73;19.48;;;12.70;99.90;;;12.77;100.00;101233.78;4973587;28;20078;-75
2022/04/30 10:23:27;;;;;;;27.08;20.88;;;12.80;99.90;;;12.73;100.00;101234.75;4989007;28;20073;-76
2022/04/30 10:25:54;;;;;;;23.95;19.40;;;12.80;99.90;;;12.73;100.00;101225.94;4989485;28;20500;-78
2022/04/30 10:28:23;;;;;;;21.80;19.30;;;12.80;99.90;;;12.76;100.00;101232.03;5005280;28;20042;-75
2022/04/30 10:31:04;;;;;;;19.95;17.92;;;12.80;99.90;;;12.89;100.00;101224.75;5005386;28;20078;-75
2022/04/30 10:33:33;;;;;;;22.48;17.92;;;12.90;99.90;;;12.81;100.00;101223.16;4990396;28;20050;-77